ADDS METAR Data INFO
IDs: Format: Raw Decoded Include TAF

Data at: 1950 UTC 14 Aug 2018

KCHK 141935Z AUTO 18010KT 10SM SCT080 31/23 A2988 RMK AO2 LTG DSNT NE AND E T03080231
KCHK 141915Z AUTO 20012KT 10SM SCT055 30/23 A2987 RMK AO2 LTG DSNT NE AND E T03020231
KCHK 141855Z AUTO 21012KT 10SM TS SCT028 SCT055 30/23 A2988 RMK AO2 LTG DSNT NE AND E T02990228
KCHK 141835Z AUTO 20012G16KT 10SM SCT028 BKN041 BKN055 29/23 A2988 RMK AO2 T02900232
KCHK 141815Z AUTO 19011KT 10SM SCT027 BKN040 OVC070 29/23 A2989 RMK AO2 LTG DSNT SE T02870234
KCHK 141755Z AUTO 21008KT 10SM BKN025 BKN031 OVC040 28/23 A2989 RMK AO2 LTG DSNT SE T02840228 10286 20208
KCHK 141735Z AUTO 20006KT 10SM OVC023 28/23 A2990 RMK AO2 LTG DSNT E AND SE T02800233
KCHK 141715Z AUTO 15008KT 10SM OVC023 27/23 A2990 RMK AO2 LTG DSNT E AND SE T02730232
KCHK 141655Z AUTO 16005KT 10SM BKN019 OVC024 27/23 A2991 RMK AO2 LTG DSNT SE T02660230
KCHK 141635Z AUTO 21006KT 10SM BKN016 26/23 A2993 RMK AO2 T02630229
KCHK 141615Z AUTO 17007KT 10SM BKN014 26/23 A2992 RMK AO2 LTG DSNT SE T02620228
KCHK 141555Z AUTO 20005KT 10SM OVC012 25/22 A2992 RMK AO2 T02530224
KCHK 141535Z AUTO 21006KT 10SM OVC012 25/22 A2992 RMK AO2 LTG DSNT N AND NE T02460221
KCHK 141515Z AUTO 20005KT 10SM BKN010 OVC036 24/22 A2991 RMK AO2 LTG DSNT N T02370217
KCHK 141455Z AUTO 00000KT 10SM SCT007 BKN012 OVC034 23/22 A2991 RMK AO2 LTG DSNT N AND E T02300216
KCHK 141435Z AUTO 14004KT 10SM SCT005 SCT012 OVC034 23/21 A2991 RMK AO2 T02260215
KCHK 141415Z AUTO 12006KT 7SM BKN012 BKN032 OVC047 22/21 A2991 RMK AO2 T02220213
KCHK 141355Z AUTO 12006KT 10SM BKN033 OVC044 22/21 A2991 RMK AO2 LTG DSNT NW T02200212
KCHK 141335Z AUTO 11004KT 7SM -RA BR OVC031 22/21 A2991 RMK AO2 LTG DSNT NW T02170210
KCHK 141315Z AUTO 03003KT 10SM OVC031 21/21 A2991 RMK AO2 LTG DSNT N AND S T02140209
KCHK 141255Z AUTO 00000KT 10SM BKN031 OVC039 21/21 A2991 RMK AO2 LTG DSNT S AND NW T02140208
KCHK 141235Z AUTO 00000KT 10SM SCT031 OVC039 21/21 A2991 RMK AO2 LTG DSNT NW T02110206
KCHK 141215Z AUTO 07004KT 7SM BR OVC041 21/20 A2990 RMK AO2 T02080204
KCHK 141155Z AUTO 11003KT 10SM OVC039 21/20 A2990 RMK AO2 LTG DSNT NW T02090204 10212 20205 70043
KCHK 141135Z AUTO 00000KT 10SM SCT027 SCT036 BKN048 21/20 A2990 RMK AO2 T02080204
KCHK 141115Z AUTO 00000KT 10SM BKN023 BKN048 BKN065 21/20 A2990 RMK AO2 T02070203
KCHK 141055Z AUTO 12004KT 10SM OVC023 21/20 A2989 RMK AO2 T02080204
KCHK 141035Z AUTO 13005KT 10SM OVC021 21/20 A2989 RMK AO2 T02080205
KCHK 141015Z AUTO 13004KT 10SM SCT003 BKN021 21/20 A2989 RMK AO2 LTG DSNT E AND S T02060204
KCHK 140955Z AUTO 14005KT 7SM BKN003 21/20 A2989 RMK AO2 LTG DSNT E T02060204
KCHK 140935Z AUTO 14006KT 2SM BR OVC003 21/20 A2989 RMK AO2 LTG DSNT SE T02070205
KCHK 140915Z AUTO 14007KT 1/2SM FG OVC003 21/20 A2990 RMK AO2 T02060204
KCHK 140855Z AUTO 14007KT 1/4SM FG OVC003 21/20 A2990 RMK AO2 T02060204
KCHK 140835Z AUTO 13005KT 1/4SM FG OVC003 21/20 A2990 RMK AO2 T02070204
KCHK 140815Z AUTO 09003KT 1/4SM FG OVC003 21/20 A2990 RMK AO2 T02070204
KCHK 140755Z AUTO 00000KT 4SM BR OVC003 21/21 A2990 RMK AO2 T02110207
KCHK 140735Z AUTO 13003KT 10SM OVC003 21/21 A2990 RMK AO2 T02110207
KCHK 140715Z AUTO 14003KT 10SM OVC003 21/21 A2991 RMK AO2 T02110207
KCHK 140655Z AUTO 16003KT 10SM OVC005 21/20 A2991 RMK AO2 LTG DSNT W T02090205
KCHK 140635Z AUTO 00000KT 10SM OVC005 21/20 A2991 RMK AO2 T02080204
KCHK 140615Z AUTO 11004KT 10SM SCT005 21/20 A2991 RMK AO2 T02060202
KCHK 140555Z AUTO 00000KT 10SM SCT007 21/20 A2992 RMK AO2 T02090204 10242 20209
KCHK 140535Z AUTO 00000KT 10SM SCT005 21/20 A2992 RMK AO2 T02100204
KCHK 140515Z AUTO 00000KT 10SM CLR 21/20 A2991 RMK AO2 T02100205
KCHK 140455Z AUTO 19003KT 10SM CLR 21/21 A2991 RMK AO2 T02130206
KCHK 140435Z AUTO 00000KT 10SM CLR 22/21 A2991 RMK AO2 T02160207
KCHK 140415Z AUTO 00000KT 10SM CLR 22/21 A2991 RMK AO2 T02160207
KCHK 140355Z AUTO 14003KT 10SM CLR 22/21 A2991 RMK AO2 T02210208
KCHK 140335Z AUTO 15005KT 10SM CLR 22/21 A2992 RMK AO2 T02220208
KCHK 140315Z AUTO 16008KT 10SM SCT110 22/21 A2992 RMK AO2 T02230208
KCHK 140255Z AUTO 17006KT 10SM SCT110 22/21 A2992 RMK AO2 T02230212
KCHK 140235Z AUTO 17004KT 10SM CLR 23/21 A2991 RMK AO2 LTG DSNT SW T02260212
KCHK 140215Z AUTO 18005KT 10SM CLR 23/21 A2990 RMK AO2 T02290213
KCHK 140155Z AUTO 22003KT 10SM CLR 23/22 A2989 RMK AO2 T02310218
KCHK 140135Z AUTO 17003KT 10SM SCT021 24/22 A2988 RMK AO2 T02360217
KCHK 140115Z AUTO 19005KT 10SM BKN021 24/22 A2988 RMK AO2 T02390217
KCHK 140055Z AUTO 17004KT 10SM SCT012 BKN021 BKN050 24/22 A2989 RMK AO2 T02360219
KCHK 140035Z AUTO 16005KT 10SM BKN012 OVC055 24/22 A2989 RMK AO2 T02380218
KCHK 140015Z AUTO 16008KT 10SM SCT014 SCT026 OVC055 24/22 A2990 RMK AO2 T02400218
KCHK 132355Z AUTO 16009KT 10SM BKN016 BKN026 OVC055 24/22 A2990 RMK AO2 T02420215 10251 20227 402680221 60013
KCHK 132335Z AUTO 15009KT 10SM BKN016 BKN060 BKN100 24/21 A2991 RMK AO2 T02430215
KCHK 132315Z AUTO 15008KT 10SM SCT100 24/21 A2991 RMK AO2 T02450212
KCHK 132255Z AUTO 13011KT 10SM SCT017 BKN023 BKN070 24/21 A2992 RMK AO2 T02430211
KCHK 132235Z AUTO 11011KT 10SM BKN017 OVC023 25/22 A2991 RMK AO2 T02460216
KCHK 132215Z AUTO 15011KT 10SM BKN015 OVC020 25/22 A2993 RMK AO2 LTG DSNT S T02490218
KCHK 132155Z AUTO 12008KT 10SM BKN015 BKN021 BKN026 25/22 A2992 RMK AO2 T02480222
KCHK 132135Z AUTO 13011KT 10SM BKN015 OVC021 24/22 A2993 RMK AO2 T02440221
KCHK 132115Z AUTO 13010KT 10SM BKN015 BKN020 24/22 A2993 RMK AO2 T02450216
KCHK 132055Z AUTO 12011KT 10SM BKN013 25/22 A2993 RMK AO2 LTG DSNT E T02480219 60013
KCHK 132035Z AUTO 15009KT 10SM BKN011 25/22 A2992 RMK AO2 T02480223
KCHK 132015Z AUTO 13008KT 10SM SCT011 SCT021 25/22 A2993 RMK AO2 T02470221
KCHK 131955Z AUTO 14006KT 10SM SCT009 BKN021 24/22 A2995 RMK AO2 P0002 T02410222
KCHK 131935Z AUTO 12007KT 10SM -RA SCT009 BKN013 BKN027 24/22 A2995 RMK AO2 LTG DSNT E AND SE P0002 T02370222
KCHK 131915Z AUTO 12004KT 10SM -RA SCT007 BKN024 OVC065 23/22 A2995 RMK AO2 LTG DSNT SE P0002 T02330221
KCHK 131855Z AUTO 13004KT 10SM -RA SCT022 BKN047 OVC060 23/22 A2996 RMK AO2 LTG DSNT SE AND S P0011 T02300218
KCHK 131835Z AUTO 13003KT 4SM RA BR SCT008 BKN016 OVC050 23/22 A2997 RMK AO2 LTG DSNT SE P0009 T02280218
KCHK 131815Z AUTO 21004KT 10SM RA SCT008 BKN014 OVC075 23/22 A2998 RMK AO2 LTG DSNT S P0003 T02300218
KCHK 131755Z AUTO 18003KT 10SM RA BKN012 BKN041 OVC075 23/22 A2999 RMK AO2 P0001 T02310218 10235 20221 60030
KCHK 131735Z AUTO 14004KT 10SM -RA BKN010 BKN022 BKN065 23/22 A3000 RMK AO2 T02330217
KCHK 131715Z AUTO 15005KT 10SM BKN008 BKN011 23/22 A3000 RMK AO2 T02330218
KCHK 131655Z AUTO 15005KT 10SM BKN006 OVC010 23/22 A3000 RMK AO2 P0001 T02320219
KCHK 131635Z AUTO 16005KT 10SM OVC006 23/22 A3000 RMK AO2 P0001 T02280219
KCHK 131615Z AUTO 13003KT 10SM -RA OVC006 22/22 A3000 RMK AO2 P0001 T02240217
KCHK 131555Z AUTO 18003KT 10SM -RA BKN006 BKN022 OVC090 22/22 A3000 RMK AO2 P0012 T02230217
KCHK 131535Z AUTO 18003KT 7SM RA SCT006 BKN075 OVC090 22/22 A3001 RMK AO2 P0011 T02210215
KCHK 131515Z AUTO 19007KT 7SM +RA SCT006 BKN021 OVC090 22/22 A3002 RMK AO2 P0005 T02210215
KCHK 131455Z AUTO 18009KT 7SM RA BR BKN006 BKN021 OVC090 22/22 A3002 RMK AO2 P0015 T02210215 60016
KCHK 131435Z AUTO 17007KT 5SM RA BR OVC006 22/22 A3002 RMK AO2 P0009 T02220216
KCHK 131415Z AUTO 18006KT 5SM RA BR OVC006 22/22 A3002 RMK AO2 P0003 T02230216
KCHK 131355Z AUTO 17007KT 7SM RA BR SCT008 BKN060 OVC110 22/21 A3001 RMK AO2 P0001 T02240214
KCHK 131335Z AUTO 17006KT 10SM -RA SCT009 OVC110 23/21 A3000 RMK AO2 T02260214
KCHK 131315Z AUTO 16006KT 10SM SCT009 OVC120 23/21 A3000 RMK AO2 T02270214
KCHK 131255Z AUTO 14008KT 10SM OVC120 23/21 A2999 RMK AO2 LTG DSNT N T02260213
KCHK 131235Z AUTO 14007KT 10SM OVC110 23/21 A2999 RMK AO2 T02260213
KCHK 131215Z AUTO 14008KT 10SM OVC110 23/21 A2999 RMK AO2 T02260214
KCHK 131155Z AUTO 14007KT 10SM OVC100 23/21 A2999 RMK AO2 T02260215 10233 20226 70003
KCHK 131135Z AUTO 14007KT 10SM OVC100 23/22 A2998 RMK AO2 T02260216
KCHK 131115Z AUTO 13006KT 10SM SCT065 BKN100 OVC120 23/22 A2998 RMK AO2 T02270216
KCHK 131055Z AUTO 13008KT 10SM SCT065 BKN100 BKN120 23/22 A2998 RMK AO2 T02270218
KCHK 131035Z AUTO 13005KT 10SM BKN100 BKN120 23/22 A2999 RMK AO2 T02280218
KCHK 131015Z AUTO 13006KT 10SM OVC110 23/22 A2999 RMK AO2 LTG DSNT NW T02290219
KCHK 130955Z AUTO 14008KT 10SM OVC110 23/22 A2999 RMK AO2 LTG DSNT S AND NW T02290219
KCHK 130935Z AUTO 14006KT 10SM OVC110 23/22 A3000 RMK AO2 LTG DSNT NW T02290219
KCHK 130915Z AUTO 15005KT 10SM BKN120 23/22 A3000 RMK AO2 LTG DSNT NW T02290219
KCHK 130855Z AUTO 15005KT 10SM SCT085 SCT120 23/22 A3000 RMK AO2 T02300220
KCHK 130835Z AUTO 14006KT 10SM SCT085 23/22 A3000 RMK AO2 T02300219
KCHK 130815Z AUTO 14006KT 10SM CLR 23/22 A3000 RMK AO2 T02300220
KCHK 130755Z AUTO 14007KT 10SM SCT090 23/22 A3000 RMK AO2 T02290219